Time;durP1;ratioP1;P1;durP2;ratioP2;P2;SDS_P1;SDS_P2;PMS_P1;PMS_P2;Temp;Humidity;BMP_temperature;BMP_pressure;BME280_temperature;BME280_humidity;BME280_pressure;Samples;Min_cycle;Max_cycle;Signal;HPM_P1;HPM_P2
2022/08/05 00:02:07;;;;;;;3.57;3.27;;;23.70;72.00;;;;;;5071875;28;20636;-78
2022/08/05 00:04:33;;;;;;;4.33;3.90;;;23.70;72.20;;;;;;5068878;28;20668;-79
2022/08/05 00:07:00;;;;;;;4.20;3.80;;;23.70;71.70;;;;;;5079242;28;21424;-78
2022/08/05 00:09:27;;;;;;;3.60;3.30;;;23.80;71.50;;;;;;5088943;28;21265;-78
2022/08/05 00:11:57;;;;;;;3.87;3.57;;;23.70;73.00;;;;;;5074301;28;20644;-78
2022/08/05 00:14:24;;;;;;;3.80;3.50;;;23.60;73.40;;;;;;5077129;28;20623;-77
2022/08/05 00:16:52;;;;;;;3.60;3.30;;;23.40;72.30;;;;;;5085707;28;20723;-77
2022/08/05 00:19:21;;;;;;;4.93;3.37;;;23.40;72.50;;;;;;5072179;28;20622;-78
2022/08/05 00:21:50;;;;;;;3.87;3.53;;;23.30;74.70;;;;;;5082862;28;20716;-78
2022/08/05 00:24:17;;;;;;;3.30;3.10;;;23.30;74.80;;;;;;5088246;28;20648;-78
2022/08/05 00:26:45;;;;;;;3.80;3.50;;;23.30;75.40;;;;;;5075884;28;21261;-78
2022/08/05 00:29:12;;;;;;;3.60;3.27;;;23.30;76.50;;;;;;5068724;28;20602;-78
2022/08/05 00:31:39;;;;;;;3.60;3.40;;;23.30;76.10;;;;;;5088114;28;20608;-78
2022/08/05 00:34:07;;;;;;;3.20;3.00;;;23.30;75.60;;;;;;5080230;28;21243;-78
2022/08/05 00:36:36;;;;;;;3.63;3.33;;;23.30;76.90;;;;;;5085603;28;20632;-78
2022/08/05 00:39:04;;;;;;;3.47;3.17;;;23.10;76.60;;;;;;5086648;28;20613;-78
2022/08/05 00:41:33;;;;;;;3.80;3.43;;;23.20;77.90;;;;;;5069882;28;21372;-78
2022/08/05 00:44:02;;;;;;;4.43;3.47;;;23.00;76.40;;;;;;5067434;28;20649;-78
2022/08/05 00:46:29;;;;;;;3.43;3.00;;;22.90;76.40;;;;;;5086263;28;21249;-77
2022/08/05 00:48:58;;;;;;;4.33;3.93;;;22.90;75.70;;;;;;5088265;28;20699;-78
2022/08/05 00:51:25;;;;;;;4.20;3.87;;;22.90;76.80;;;;;;5073718;28;21040;-77
2022/08/05 00:53:54;;;;;;;4.17;3.87;;;22.90;77.00;;;;;;5086534;28;20628;-78
2022/08/05 00:56:21;;;;;;;3.77;3.47;;;22.90;77.20;;;;;;5078592;28;21046;-78
2022/08/05 00:58:49;;;;;;;4.90;4.40;;;22.80;77.20;;;;;;5075052;28;21049;-77
2022/08/05 01:01:16;;;;;;;3.20;2.90;;;22.70;76.90;;;;;;5074336;28;20620;-77
2022/08/05 01:03:43;;;;;;;2.80;2.60;;;22.80;75.20;;;;;;5073354;28;20652;-77
2022/08/05 01:06:11;;;;;;;3.40;3.10;;;23.60;65.40;;;;;;5087065;28;20710;-78
2022/08/05 01:08:38;;;;;;;2.60;2.40;;;23.00;65.20;;;;;;5067833;28;20675;-77
2022/08/05 01:11:11;;;;;;;2.07;1.90;;;23.20;63.10;;;;;;5072337;28;20718;-77
2022/08/05 01:13:46;;;;;;;3.07;2.20;;;23.40;61.70;;;;;;5067241;28;20633;-78
2022/08/05 01:16:20;;;;;;;2.40;2.00;;;23.60;61.90;;;;;;5085060;28;20735;-77
2022/08/05 01:18:53;;;;;;;2.23;2.03;;;23.60;62.00;;;;;;5085685;28;20624;-77
2022/08/05 01:21:48;;;;;;;2.00;1.90;;;23.60;61.50;;;;;;5076843;28;20625;-77
2022/08/05 01:24:31;;;;;;;2.27;2.17;;;23.70;61.20;;;;;;5086062;28;21021;-77
2022/08/05 01:27:09;;;;;;;2.00;1.90;;;23.80;62.10;;;;;;5084689;28;20660;-78
2022/08/05 01:29:45;;;;;;;2.20;1.90;;;23.90;62.40;;;;;;5067565;28;20749;-77
2022/08/05 01:32:20;;;;;;;2.00;1.90;;;23.90;62.40;;;;;;5083336;28;20632;-78
2022/08/05 01:34:53;;;;;;;2.00;1.90;;;24.00;62.70;;;;;;5073931;28;20645;-78
2022/08/05 01:37:29;;;;;;;3.17;2.43;;;23.90;63.40;;;;;;5067213;28;21116;-77
2022/08/05 01:39:59;;;;;;;1.97;1.87;;;23.90;64.60;;;;;;5068043;28;20640;-77
2022/08/05 01:42:28;;;;;;;2.40;1.87;;;23.90;63.80;;;;;;5068483;28;21219;-78
2022/08/05 01:45:00;;;;;;;1.80;1.70;;;24.00;64.50;;;;;;5067005;28;20719;-77
2022/08/05 01:47:31;;;;;;;2.37;2.17;;;23.90;64.00;;;;;;5087650;28;20728;-77
2022/08/05 01:50:01;;;;;;;2.63;2.43;;;23.90;64.40;;;;;;5075105;28;20621;-77
2022/08/05 01:52:31;;;;;;;2.10;2.00;;;23.90;64.70;;;;;;5074778;28;20699;-77
2022/08/05 01:55:02;;;;;;;2.30;2.10;;;23.90;65.00;;;;;;5067095;28;20657;-77
2022/08/05 01:57:33;;;;;;;2.03;1.90;;;23.80;65.40;;;;;;5067339;28;20720;-77
2022/08/05 02:00:05;;;;;;;1.97;1.87;;;23.80;65.90;;;;;;5086158;28;20649;-77
2022/08/05 02:02:36;;;;;;;2.23;2.03;;;23.70;66.20;;;;;;5079617;28;20625;-77
2022/08/05 02:05:07;;;;;;;2.33;2.03;;;23.70;66.20;;;;;;5086874;28;20652;-77
2022/08/05 02:07:35;;;;;;;2.00;1.90;;;23.70;66.60;;;;;;5066904;28;20624;-78
2022/08/05 02:10:04;;;;;;;1.83;1.70;;;23.70;66.70;;;;;;5066894;28;20635;-77
2022/08/05 02:12:37;;;;;;;2.20;2.10;;;23.60;67.00;;;;;;5078245;28;20720;-77
2022/08/05 02:15:12;;;;;;;2.73;2.47;;;23.60;67.40;;;;;;5066485;28;20614;-77
2022/08/05 02:17:45;;;;;;;4.50;2.20;;;23.60;67.60;;;;;;5072516;28;21290;-77
2022/08/05 02:20:19;;;;;;;1.83;1.70;;;23.60;67.90;;;;;;5066905;28;20623;-77
2022/08/05 02:22:50;;;;;;;3.80;1.93;;;23.60;67.90;;;;;;5073678;28;20859;-77
2022/08/05 02:25:20;;;;;;;2.37;1.80;;;23.60;68.30;;;;;;5088678;28;21245;-78
2022/08/05 02:27:50;;;;;;;1.70;1.60;;;23.50;68.40;;;;;;5071946;28;20633;-77
2022/08/05 02:30:19;;;;;;;2.07;1.97;;;23.40;68.70;;;;;;5071673;28;20617;-77
2022/08/05 02:32:49;;;;;;;2.40;2.20;;;23.40;68.80;;;;;;5073487;28;20710;-77
2022/08/05 02:35:20;;;;;;;2.20;2.10;;;23.30;68.90;;;;;;5086300;28;21198;-77
2022/08/05 02:37:48;;;;;;;3.70;2.37;;;23.30;69.20;;;;;;5070295;28;20992;-78
2022/08/05 02:40:16;;;;;;;2.20;2.00;;;23.30;69.50;;;;;;5080953;28;20612;-77
2022/08/05 02:42:45;;;;;;;3.10;2.27;;;23.30;69.90;;;;;;5069648;28;20708;-78
2022/08/05 02:45:14;;;;;;;2.77;2.53;;;23.20;69.90;;;;;;5075780;28;20693;-77
2022/08/05 02:47:43;;;;;;;2.70;1.77;;;23.30;69.90;;;;;;5072458;28;20661;-77
2022/08/05 02:50:13;;;;;;;2.87;2.67;;;23.20;70.20;;;;;;5070509;28;21055;-78
2022/08/05 02:52:41;;;;;;;4.20;2.57;;;23.30;70.90;;;;;;5089305;28;20966;-78
2022/08/05 02:55:09;;;;;;;3.60;2.97;;;23.20;70.50;;;;;;5088915;28;20640;-77
2022/08/05 02:57:39;;;;;;;2.50;2.30;;;23.10;71.60;;;;;;5077468;28;20724;-78
2022/08/05 03:00:08;;;;;;;2.97;2.70;;;23.10;71.80;;;;;;5070954;28;21071;-78
2022/08/05 03:02:39;;;;;;;2.20;2.00;;;23.10;71.80;;;;;;5075863;28;20839;-78
2022/08/05 03:05:09;;;;;;;2.50;2.30;;;23.00;72.40;;;;;;5077011;28;20764;-77
2022/08/05 03:07:38;;;;;;;3.00;2.40;;;23.00;72.60;;;;;;5089903;28;20731;-77
2022/08/05 03:10:05;;;;;;;3.10;2.17;;;22.90;73.40;;;;;;5081059;28;20736;-77
2022/08/05 03:12:33;;;;;;;3.60;2.40;;;22.80;73.10;;;;;;5069405;28;20709;-78
2022/08/05 03:15:00;;;;;;;2.30;2.10;;;22.70;74.20;;;;;;5080768;28;20621;-77
2022/08/05 03:17:28;;;;;;;2.73;2.53;;;22.70;74.10;;;;;;5086222;28;20630;-77
2022/08/05 03:19:54;;;;;;;3.40;2.13;;;22.70;75.00;;;;;;5074413;28;20768;-77
2022/08/05 03:22:23;;;;;;;2.57;2.13;;;22.60;75.40;;;;;;5086215;28;20634;-77
2022/08/05 03:24:51;;;;;;;2.83;2.27;;;22.60;75.60;;;;;;5090203;28;21125;-77
2022/08/05 03:27:18;;;;;;;3.07;2.20;;;22.40;75.60;;;;;;5096478;28;20735;-77
2022/08/05 03:29:45;;;;;;;2.60;2.40;;;22.50;76.30;;;;;;5097210;28;20609;-77
2022/08/05 03:32:12;;;;;;;1.87;1.77;;;22.50;76.80;;;;;;5083951;28;21054;-77
2022/08/05 03:34:39;;;;;;;6.07;2.93;;;22.30;76.50;;;;;;5077532;28;20663;-77
2022/08/05 03:37:07;;;;;;;2.20;2.10;;;22.30;77.20;;;;;;5087970;28;20624;-77
2022/08/05 03:39:35;;;;;;;2.63;2.40;;;22.30;77.50;;;;;;5089922;28;20608;-77
2022/08/05 03:42:02;;;;;;;2.33;2.13;;;22.20;78.30;;;;;;5074388;28;20724;-77
2022/08/05 03:44:29;;;;;;;2.30;2.10;;;22.10;78.00;;;;;;5068276;28;21278;-78
2022/08/05 03:46:55;;;;;;;2.20;2.00;;;22.00;79.00;;;;;;5085248;28;20617;-77
2022/08/05 03:49:22;;;;;;;3.13;2.67;;;22.00;79.00;;;;;;5079300;28;20625;-78
2022/08/05 03:51:56;;;;;;;2.60;2.40;;;22.00;79.20;;;;;;5069321;28;21243;-77
2022/08/05 03:54:32;;;;;;;2.50;2.30;;;22.00;79.80;;;;;;5078180;28;20629;-78
2022/08/05 03:57:03;;;;;;;3.33;3.03;;;22.10;79.90;;;;;;5076934;28;20736;-77
2022/08/05 03:59:35;;;;;;;3.13;2.83;;;22.10;78.30;;;;;;5078750;28;20638;-78
2022/08/05 04:02:03;;;;;;;4.23;2.70;;;22.20;78.00;;;;;;5084179;28;20672;-77
2022/08/05 04:04:32;;;;;;;2.50;2.30;;;22.10;77.30;;;;;;5068843;28;21011;-77
2022/08/05 04:07:00;;;;;;;2.90;2.70;;;22.00;78.40;;;;;;5086600;28;20732;-78
2022/08/05 04:09:27;;;;;;;2.60;2.37;;;21.90;79.40;;;;;;5088891;28;20728;-78
2022/08/05 04:11:55;;;;;;;2.63;2.43;;;21.80;79.60;;;;;;5082128;28;20633;-77
2022/08/05 04:14:24;;;;;;;5.90;2.47;;;21.80;79.90;;;;;;5088701;28;21007;-77
2022/08/05 04:16:52;;;;;;;3.43;2.83;;;21.80;80.70;;;;;;5070564;28;20718;-77
2022/08/05 04:19:19;;;;;;;2.60;2.40;;;21.70;80.20;;;;;;5070082;28;21150;-76
2022/08/05 04:21:46;;;;;;;2.60;2.23;;;21.70;80.20;;;;;;5084394;28;20723;-77
2022/08/05 04:24:13;;;;;;;3.10;2.70;;;21.90;79.40;;;;;;5087010;28;20727;-77
2022/08/05 04:26:39;;;;;;;3.30;2.63;;;22.00;78.90;;;;;;5074728;28;20629;-77
2022/08/05 04:29:06;;;;;;;2.30;2.10;;;22.00;78.60;;;;;;5083392;28;20652;-76
2022/08/05 04:31:34;;;;;;;3.60;3.30;;;22.00;78.60;;;;;;5082528;28;20656;-76
2022/08/05 04:34:01;;;;;;;3.27;2.97;;;21.90;80.30;;;;;;5086055;28;20632;-76
2022/08/05 04:36:28;;;;;;;2.67;2.47;;;21.80;80.70;;;;;;5087222;28;20682;-76
2022/08/05 04:38:56;;;;;;;2.70;2.50;;;22.10;80.90;;;;;;5070795;28;20709;-77
2022/08/05 04:41:23;;;;;;;3.20;2.97;;;21.80;79.70;;;;;;5076945;28;20639;-76
2022/08/05 04:43:50;;;;;;;2.73;2.33;;;21.80;81.40;;;;;;5082313;28;20668;-77
2022/08/05 04:46:16;;;;;;;7.37;3.23;;;21.70;81.20;;;;;;5072138;28;21048;-76
2022/08/05 04:48:44;;;;;;;2.87;2.60;;;21.60;82.10;;;;;;5088091;28;20628;-76
2022/08/05 04:51:11;;;;;;;3.63;2.50;;;21.60;82.10;;;;;;5086404;28;20723;-77
2022/08/05 04:53:38;;;;;;;2.53;2.33;;;21.50;82.60;;;;;;5084998;28;21308;-77
2022/08/05 04:56:06;;;;;;;3.00;2.77;;;21.50;82.60;;;;;;5076628;28;20637;-77
2022/08/05 04:58:33;;;;;;;2.67;2.40;;;21.50;82.60;;;;;;5087892;28;20723;-76
2022/08/05 05:01:00;;;;;;;2.97;2.67;;;21.60;82.00;;;;;;5082414;28;20634;-77
2022/08/05 05:03:26;;;;;;;3.80;3.20;;;21.50;83.70;;;;;;5074656;28;20621;-76
2022/08/05 05:05:55;;;;;;;3.33;2.70;;;21.80;85.60;;;;;;5074197;28;20684;-79
2022/08/05 05:08:21;;;;;;;3.50;2.63;;;21.40;84.50;;;;;;5076497;28;21058;-79
2022/08/05 05:10:49;;;;;;;3.03;2.83;;;21.50;84.10;;;;;;5076107;28;20657;-79
2022/08/05 05:13:17;;;;;;;4.03;3.63;;;21.50;83.60;;;;;;5074669;28;21218;-80
2022/08/05 05:15:45;;;;;;;3.50;2.97;;;21.60;82.80;;;;;;5076411;28;20670;-80
2022/08/05 05:18:16;;;;;;;3.17;2.53;;;21.80;81.90;;;;;;5078151;28;20720;-80
2022/08/05 05:20:43;;;;;;;3.30;3.03;;;21.90;81.60;;;;;;5076698;28;21021;-79
2022/08/05 05:23:12;;;;;;;3.27;3.07;;;22.00;81.40;;;;;;5077569;28;20614;-79
2022/08/05 05:25:41;;;;;;;3.33;3.10;;;22.00;81.70;;;;;;5076678;28;20768;-80
2022/08/05 05:28:08;;;;;;;2.70;2.50;;;22.10;81.90;;;;;;5076941;28;20612;-80
2022/08/05 05:30:35;;;;;;;3.07;2.80;;;22.10;81.50;;;;;;5076336;28;20670;-79
2022/08/05 05:33:04;;;;;;;2.60;2.40;;;22.50;82.60;;;;;;5075815;28;20605;-79
2022/08/05 05:35:32;;;;;;;3.03;2.83;;;22.40;80.30;;;;;;5056701;28;20639;-80
2022/08/05 05:38:01;;;;;;;3.30;3.00;;;22.50;80.00;;;;;;5077049;28;20677;-80
2022/08/05 05:40:31;;;;;;;2.70;2.50;;;22.50;80.10;;;;;;5070929;28;20634;-80
2022/08/05 05:42:58;;;;;;;2.87;2.67;;;22.60;80.00;;;;;;5078260;28;20621;-78
2022/08/05 05:45:25;;;;;;;3.70;3.40;;;22.60;80.30;;;;;;5084258;28;20741;-80
2022/08/05 05:47:52;;;;;;;4.00;3.10;;;22.70;80.20;;;;;;5076446;28;21183;-78
2022/08/05 05:50:19;;;;;;;3.70;3.40;;;22.80;79.90;;;;;;5069045;28;20664;-78
2022/08/05 05:52:47;;;;;;;4.10;3.80;;;22.90;79.70;;;;;;5080967;28;20723;-78
2022/08/05 05:55:16;;;;;;;3.53;3.23;;;23.00;80.20;;;;;;5085586;28;20733;-78
2022/08/05 05:57:46;;;;;;;3.93;3.63;;;23.10;79.70;;;;;;5087025;28;20635;-78
2022/08/05 06:00:14;;;;;;;3.80;3.50;;;23.20;78.90;;;;;;5080264;28;20719;-78
2022/08/05 06:02:42;;;;;;;4.47;3.63;;;23.40;78.40;;;;;;5082303;28;20683;-79
2022/08/05 06:05:12;;;;;;;5.97;3.70;;;23.40;78.40;;;;;;5067438;28;20653;-78
2022/08/05 06:07:39;;;;;;;4.10;3.70;;;23.50;78.80;;;;;;5073757;28;20723;-78
2022/08/05 06:10:07;;;;;;;4.03;3.40;;;23.60;77.80;;;;;;5076967;28;20626;-80
2022/08/05 06:12:35;;;;;;;3.30;3.10;;;23.40;77.50;;;;;;5067316;28;20985;-78
2022/08/05 06:15:05;;;;;;;4.97;3.67;;;23.80;75.80;;;;;;5077077;28;20610;-78
2022/08/05 06:17:32;;;;;;;3.70;3.40;;;23.80;76.20;;;;;;5067953;28;20714;-79
2022/08/05 06:19:59;;;;;;;4.27;3.77;;;23.90;75.30;;;;;;5067421;28;21061;-78
2022/08/05 06:22:28;;;;;;;3.30;3.10;;;23.80;75.60;;;;;;5069269;28;20656;-79
2022/08/05 06:24:55;;;;;;;3.17;2.97;;;23.90;76.20;;;;;;5086264;28;21084;-79
2022/08/05 06:27:22;;;;;;;2.40;2.30;;;24.00;75.40;;;;;;5077091;28;20609;-79
2022/08/05 06:29:48;;;;;;;2.57;2.43;;;24.00;74.70;;;;;;5076320;28;20724;-79
2022/08/05 06:32:17;;;;;;;3.20;2.90;;;24.00;74.70;;;;;;5065942;28;20683;-79
2022/08/05 06:34:44;;;;;;;3.50;3.13;;;24.00;74.50;;;;;;5066155;28;20848;-79
2022/08/05 06:37:10;;;;;;;4.13;3.30;;;24.10;74.80;;;;;;5070956;28;20620;-79
2022/08/05 06:39:38;;;;;;;3.37;3.10;;;24.30;73.70;;;;;;5085995;28;20682;-79
2022/08/05 06:42:05;;;;;;;3.30;3.00;;;;;;;;;;5085222;28;20628;-79
2022/08/05 06:44:33;;;;;;;2.33;2.13;;;;;;;;;;5082134;28;20633;-79
2022/08/05 06:47:00;;;;;;;2.27;2.17;;;24.40;73.10;;;;;;5068432;28;20692;-80
2022/08/05 06:49:28;;;;;;;2.60;2.40;;;24.40;73.30;;;;;;5087375;28;20694;-79
2022/08/05 06:51:55;;;;;;;3.07;2.77;;;24.40;71.60;;;;;;5074912;28;20733;-79
2022/08/05 06:54:21;;;;;;;1.90;1.80;;;24.60;71.80;;;;;;5068028;28;20695;-79
2022/08/05 06:56:48;;;;;;;2.57;2.37;;;24.60;71.20;;;;;;5075446;28;21192;-78
2022/08/05 06:59:15;;;;;;;2.93;2.73;;;24.50;70.90;;;;;;5084648;28;20686;-79
2022/08/05 07:01:42;;;;;;;2.70;2.50;;;24.60;71.70;;;;;;5077667;28;21171;-79
2022/08/05 07:04:09;;;;;;;4.20;2.47;;;24.60;72.70;;;;;;5081396;28;20731;-80
2022/08/05 07:06:37;;;;;;;2.33;2.13;;;24.70;70.50;;;;;;5076956;28;20664;-80
2022/08/05 07:09:04;;;;;;;2.20;2.00;;;24.80;74.00;;;;;;5082823;28;20624;-80
2022/08/05 07:11:32;;;;;;;3.10;2.20;;;24.80;70.10;;;;;;5085692;28;20720;-79
2022/08/05 07:16:49;;;;;;;2.53;2.33;;;24.90;68.70;;;;;;5077886;28;20618;-80
2022/08/05 07:19:17;;;;;;;2.53;2.30;;;25.40;69.20;;;;;;5076761;28;20626;-80
2022/08/05 07:21:45;;;;;;;2.40;2.20;;;25.40;69.50;;;;;;5079962;28;20627;-80
2022/08/05 07:24:13;;;;;;;2.77;2.20;;;25.20;65.40;;;;;;5078454;28;20719;-79
2022/08/05 07:26:40;;;;;;;2.63;2.27;;;25.30;66.20;;;;;;5076363;28;20689;-80
2022/08/05 07:29:07;;;;;;;3.60;2.00;;;25.30;66.30;;;;;;5076676;28;20620;-81
2022/08/05 07:31:34;;;;;;;1.97;1.87;;;25.40;65.50;;;;;;5077987;28;20658;-80
2022/08/05 07:34:01;;;;;;;2.00;1.90;;;25.40;63.80;;;;;;5078079;28;20708;-80
2022/08/05 07:36:28;;;;;;;2.37;2.17;;;25.30;63.70;;;;;;5078403;28;20629;-80
2022/08/05 07:38:56;;;;;;;1.90;1.80;;;25.50;65.20;;;;;;5078786;28;20720;-80
2022/08/05 07:41:24;;;;;;;2.50;2.30;;;25.60;65.00;;;;;;5068018;28;20621;-80
2022/08/05 07:43:51;;;;;;;2.30;2.10;;;25.80;64.80;;;;;;5067885;28;20641;-80
2022/08/05 07:46:18;;;;;;;3.10;2.47;;;25.80;64.70;;;;;;5067760;28;21028;-81
2022/08/05 07:48:45;;;;;;;2.53;2.33;;;25.90;64.50;;;;;;5068299;28;20706;-80
2022/08/05 07:51:14;;;;;;;2.07;1.97;;;25.90;63.20;;;;;;5068659;28;21516;-80
2022/08/05 07:53:41;;;;;;;1.83;1.73;;;25.90;62.20;;;;;;5068343;28;20633;-80
2022/08/05 07:56:09;;;;;;;2.37;2.17;;;26.00;62.90;;;;;;5077411;28;20633;-80
2022/08/05 07:58:36;;;;;;;3.33;2.00;;;26.10;63.90;;;;;;5088791;28;20620;-80
2022/08/05 08:01:03;;;;;;;1.47;1.37;;;26.30;61.70;;;;;;5088682;28;20715;-81
2022/08/05 08:03:30;;;;;;;1.20;1.10;;;26.40;60.20;;;;;;5088093;28;20708;-80
2022/08/05 08:05:57;;;;;;;1.73;1.63;;;26.60;59.60;;;;;;5072992;28;20752;-80
2022/08/05 08:08:24;;;;;;;1.70;1.60;;;26.60;60.70;;;;;;5069607;28;20662;-80
2022/08/05 08:10:54;;;;;;;1.90;1.80;;;26.60;61.10;;;;;;5073371;28;20704;-80
2022/08/05 08:13:22;;;;;;;1.90;1.73;;;26.60;59.70;;;;;;5075540;28;20631;-81
2022/08/05 08:15:49;;;;;;;1.60;1.50;;;26.60;58.50;;;;;;5069803;28;20728;-80
2022/08/05 08:18:16;;;;;;;1.20;1.10;;;26.60;58.00;;;;;;5070166;28;20693;-80
2022/08/05 08:20:43;;;;;;;1.50;1.40;;;26.80;59.40;;;;;;5069852;28;21007;-81
2022/08/05 08:23:10;;;;;;;1.57;1.47;;;26.90;58.10;;;;;;5075938;28;20724;-79
2022/08/05 08:25:37;;;;;;;1.70;1.60;;;26.90;58.30;;;;;;5082792;28;20724;-79
2022/08/05 08:28:07;;;;;;;1.80;1.70;;;26.70;57.40;;;;;;5084096;28;21431;-80
2022/08/05 08:30:37;;;;;;;1.40;1.30;;;26.90;57.60;;;;;;5084344;28;20721;-80
2022/08/05 08:33:07;;;;;;;1.77;1.67;;;27.00;57.30;;;;;;5093588;28;20668;-80
2022/08/05 08:35:34;;;;;;;1.50;1.30;;;27.00;57.40;;;;;;5077796;28;20629;-80
2022/08/05 08:38:02;;;;;;;1.30;1.20;;;26.70;58.30;;;;;;5083966;28;20657;-79
2022/08/05 08:40:29;;;;;;;1.60;1.50;;;27.40;57.90;;;;;;5066929;28;21539;-81
2022/08/05 08:42:57;;;;;;;1.83;1.73;;;27.10;57.00;;;;;;5084064;28;20619;-81
2022/08/05 08:45:24;;;;;;;2.13;1.63;;;27.20;57.00;;;;;;5088334;28;20976;-80
2022/08/05 08:47:53;;;;;;;1.40;1.30;;;27.00;56.80;;;;;;5084248;28;20668;-82
2022/08/05 08:50:21;;;;;;;1.50;1.40;;;27.40;56.40;;;;;;5072286;28;20735;-81
2022/08/05 08:52:52;;;;;;;1.63;1.53;;;27.00;55.90;;;;;;5087932;28;20616;-81
2022/08/05 08:55:20;;;;;;;1.33;1.23;;;27.30;56.00;;;;;;5070919;28;20649;-81
2022/08/05 08:57:47;;;;;;;1.90;1.30;;;27.50;55.80;;;;;;5077169;28;20629;-80
2022/08/05 09:00:39;;;;;;;1.20;1.10;;;27.60;55.00;;;;;;5071938;28;20617;-82
2022/08/05 09:03:10;;;;;;;1.30;1.20;;;27.50;55.10;;;;;;5069669;28;20629;-81
2022/08/05 09:06:12;;;;;;;2.30;1.37;;;27.60;54.60;;;;;;5069558;28;20631;-82
2022/08/05 09:09:02;;;;;;;1.63;1.30;;;27.50;55.50;;;;;;5074331;28;20656;-82
2022/08/05 09:11:57;;;;;;;2.13;1.30;;;27.70;56.30;;;;;;5075098;28;20660;-82
2022/08/05 09:14:40;;;;;;;1.50;1.40;;;27.90;54.80;;;;;;5074436;28;21014;-82
2022/08/05 09:17:39;;;;;;;1.93;1.80;;;28.10;55.20;;;;;;5087154;28;20625;-82
2022/08/05 09:20:20;;;;;;;1.40;1.33;;;27.80;53.70;;;;;;5086295;28;21171;-82
2022/08/05 09:23:09;;;;;;;1.43;1.33;;;27.90;54.20;;;;;;5075756;28;20636;-81
2022/08/05 09:25:38;;;;;;;1.70;1.50;;;28.10;53.90;;;;;;5077194;28;21183;-81
2022/08/05 09:28:14;;;;;;;1.40;1.30;;;28.00;53.50;;;;;;5072355;28;20618;-81
2022/08/05 09:31:10;;;;;;;1.30;1.20;;;28.50;52.70;;;;;;5072880;28;20664;-83
2022/08/05 09:34:00;;;;;;;1.40;1.30;;;28.50;52.50;;;;;;5073933;28;20637;-81
2022/08/05 09:36:53;;;;;;;1.90;1.80;;;29.20;52.90;;;;;;5075775;28;20629;-82
2022/08/05 09:39:21;;;;;;;1.40;1.30;;;28.90;51.70;;;;;;5066698;28;20642;-81
2022/08/05 09:41:56;;;;;;;1.50;1.30;;;29.10;52.60;;;;;;5075181;28;20643;-81
2022/08/05 09:44:40;;;;;;;1.53;1.43;;;29.40;53.20;;;;;;5086692;28;20632;-82
2022/08/05 09:47:09;;;;;;;3.13;1.87;;;29.50;51.80;;;;;;5075224;28;21225;-81
2022/08/05 09:50:09;;;;;;;1.80;1.70;;;29.60;51.80;;;;;;5068206;28;20629;-84
2022/08/05 09:52:57;;;;;;;1.33;1.27;;;29.60;51.10;;;;;;5080575;28;20636;-83
2022/08/05 09:55:48;;;;;;;1.40;1.30;;;29.50;51.00;;;;;;5084733;28;20636;-83
2022/08/05 09:58:16;;;;;;;2.23;1.27;;;;;;;;;;5077931;28;20626;-81
2022/08/05 10:00:54;;;;;;;1.60;1.50;;;29.30;51.50;;;;;;5071859;28;20610;-81
2022/08/05 10:03:21;;;;;;;1.33;1.23;;;29.40;51.50;;;;;;5068321;28;20657;-81
2022/08/05 10:06:07;;;;;;;1.53;1.43;;;29.70;51.00;;;;;;5073854;28;20711;-82
2022/08/05 10:08:36;;;;;;;1.40;1.20;;;29.80;51.20;;;;;;5079266;28;20617;-82
2022/08/05 10:11:12;;;;;;;1.60;1.50;;;29.70;51.80;;;;;;5072432;28;20629;-81
2022/08/05 10:13:41;;;;;;;1.90;1.80;;;29.90;50.90;;;;;;5074521;28;20625;-82
2022/08/05 10:16:28;;;;;;;1.80;1.70;;;30.10;50.40;;;;;;5071833;28;20706;-81
2022/08/05 10:18:55;;;;;;;1.90;1.80;;;30.30;50.70;;;;;;5068201;28;21027;-81
2022/08/05 10:21:22;;;;;;;1.37;1.27;;;30.40;49.70;;;;;;5084482;28;20628;-81
2022/08/05 10:23:51;;;;;;;2.70;1.70;;;30.40;50.10;;;;;;5078303;28;20704;-81
2022/08/05 10:26:32;;;;;;;1.93;1.80;;;30.10;50.20;;;;;;5085869;28;21518;-82
2022/08/05 10:28:59;;;;;;;3.07;1.93;;;30.10;50.60;;;;;;5067410;28;20609;-81
2022/08/05 10:31:27;;;;;;;1.90;1.50;;;31.50;50.50;;;;;;5072103;28;20625;-81
2022/08/05 10:33:54;;;;;;;1.33;1.23;;;30.30;50.20;;;;;;5073083;28;21200;-82
2022/08/05 10:36:21;;;;;;;1.70;1.60;;;30.40;51.10;;;;;;5067203;28;20653;-81
2022/08/05 10:38:49;;;;;;;1.87;1.70;;;30.80;50.50;;;;;;5081919;28;20721;-82
2022/08/05 10:41:27;;;;;;;1.80;1.50;;;31.10;49.50;;;;;;5082307;28;20625;-82
2022/08/05 10:43:59;;;;;;;1.90;1.80;;;31.10;48.20;;;;;;5084280;28;20626;-82
2022/08/05 10:46:44;;;;;;;1.37;1.27;;;31.00;48.60;;;;;;5086166;28;20759;-82
2022/08/05 10:49:11;;;;;;;2.90;1.70;;;31.20;48.50;;;;;;5089741;28;20621;-81
2022/08/05 10:51:43;;;;;;;1.50;1.40;;;31.40;48.10;;;;;;5079065;28;20657;-81
2022/08/05 10:54:10;;;;;;;1.30;1.20;;;31.60;47.50;;;;;;5078130;28;20623;-81
2022/08/05 10:56:45;;;;;;;1.80;1.70;;;31.90;46.90;;;;;;5081850;28;20727;-81
2022/08/05 10:59:20;;;;;;;1.47;1.37;;;31.70;46.10;;;;;;5074233;28;20908;-82
2022/08/05 11:01:47;;;;;;;1.33;1.23;;;31.80;46.60;;;;;;5080005;28;21225;-81
2022/08/05 11:04:16;;;;;;;1.70;1.60;;;32.10;46.00;;;;;;5086557;28;20624;-80
2022/08/05 11:07:07;;;;;;;1.40;1.20;;;32.20;46.50;;;;;;5099518;28;21256;-81
2022/08/05 11:09:39;;;;;;;1.87;1.77;;;32.30;46.60;;;;;;5089814;28;20701;-80
2022/08/05 11:12:44;;;;;;;1.70;1.60;;;32.40;46.50;;;;;;5086232;28;20629;-81
2022/08/05 11:15:17;;;;;;;1.47;1.37;;;32.60;45.30;;;;;;5087216;28;20644;-81
2022/08/05 11:17:45;;;;;;;1.30;1.20;;;32.90;46.00;;;;;;5089803;28;21170;-81
2022/08/05 11:20:37;;;;;;;1.40;1.30;;;33.00;45.90;;;;;;5088594;28;21207;-80
2022/08/05 11:23:41;;;;;;;1.80;1.70;;;33.40;46.10;;;;;;5068386;28;21258;-81
2022/08/05 11:26:09;;;;;;;2.03;1.50;;;33.50;44.40;;;;;;5069439;28;20621;-80
2022/08/05 11:28:43;;;;;;;2.07;1.97;;;33.60;45.10;;;;;;5075118;28;20810;-81
2022/08/05 11:31:33;;;;;;;1.63;1.53;;;33.90;43.50;;;;;;5089962;28;20624;-80
2022/08/05 11:34:07;;;;;;;1.60;1.10;;;33.80;43.80;;;;;;5083146;28;20678;-80
2022/08/05 11:36:46;;;;;;;2.37;1.60;;;33.70;46.20;;;;;;5078233;28;20651;-80
2022/08/05 11:39:15;;;;;;;1.73;1.53;;;34.00;45.10;;;;;;5079493;28;20623;-80
2022/08/05 11:41:50;;;;;;;1.63;1.47;;;34.50;44.00;;;;;;5077278;28;20620;-80
2022/08/05 11:44:20;;;;;;;1.90;1.80;;;34.50;44.30;;;;;;5080340;28;20616;-81
2022/08/05 11:46:49;;;;;;;1.60;1.40;;;34.90;44.00;;;;;;5078436;28;20756;-80
2022/08/05 11:49:18;;;;;;;1.87;1.77;;;35.10;44.00;;;;;;5080729;28;20622;-81
2022/08/05 11:51:47;;;;;;;2.30;1.70;;;35.60;43.50;;;;;;5086338;28;20666;-81
2022/08/05 11:54:21;;;;;;;1.93;1.83;;;35.90;42.20;;;;;;5085582;28;20707;-81
2022/08/05 11:56:50;;;;;;;1.77;1.67;;;36.20;42.20;;;;;;5081548;28;20756;-81
2022/08/05 11:59:22;;;;;;;1.80;1.70;;;36.40;41.70;;;;;;5087496;28;20652;-82
2022/08/05 12:01:54;;;;;;;1.80;1.70;;;36.80;41.70;;;;;;5081360;28;20624;-82
2022/08/05 12:04:21;;;;;;;1.80;1.70;;;37.80;40.30;;;;;;5087852;28;20656;-81
2022/08/05 12:06:48;;;;;;;1.73;1.63;;;37.80;40.50;;;;;;5068989;28;20731;-82
2022/08/05 12:09:18;;;;;;;1.70;1.60;;;38.50;40.20;;;;;;5081675;28;20616;-82
2022/08/05 12:11:46;;;;;;;1.60;1.50;;;38.80;39.10;;;;;;5087673;28;20632;-81
2022/08/05 12:14:13;;;;;;;1.33;1.27;;;38.70;39.40;;;;;;5083864;28;20623;-81
2022/08/05 12:16:43;;;;;;;1.55;1.45;;;39.30;38.10;;;;;;5069212;28;20199;-81
2022/08/05 12:19:11;;;;;;;1.95;1.85;;;40.10;37.70;;;;;;5069537;28;20657;-82
2022/08/05 12:21:45;;;;;;;1.67;1.58;;;40.70;36.90;;;;;;5077023;28;20231;-81
2022/08/05 12:24:13;;;;;;;5.32;1.80;;;41.10;36.90;;;;;;5089449;28;20202;-81
2022/08/05 12:26:42;;;;;;;2.00;1.90;;;41.40;35.20;;;;;;5086990;28;20691;-81
2022/08/05 12:29:12;;;;;;;1.45;1.40;;;40.20;38.60;;;;;;5089342;28;20737;-82
2022/08/05 12:31:41;;;;;;;1.70;1.60;;;41.00;36.90;;;;;;5078100;28;20285;-82
2022/08/05 12:34:09;;;;;;;1.60;1.50;;;41.50;36.80;;;;;;5078076;28;20234;-81
2022/08/05 12:36:36;;;;;;;1.90;1.80;;;41.50;36.40;;;;;;5077613;28;20257;-82
2022/08/05 12:39:05;;;;;;;1.75;1.65;;;42.10;35.20;;;;;;5079309;28;20299;-81
2022/08/05 12:41:33;;;;;;;1.70;1.60;;;42.50;34.70;;;;;;5077218;28;20716;-83
2022/08/05 12:44:02;;;;;;;1.65;1.55;;;42.90;33.40;;;;;;5076272;28;20297;-83
2022/08/05 12:46:31;;;;;;;1.80;1.70;;;42.80;33.60;;;;;;5078700;28;20199;-83
2022/08/05 12:49:01;;;;;;;2.97;1.80;;;43.00;33.00;;;;;;5069083;28;20643;-83
2022/08/05 12:51:30;;;;;;;1.77;1.67;;;43.00;32.50;;;;;;5080476;28;20280;-81
2022/08/05 12:54:01;;;;;;;1.70;1.60;;;42.50;32.70;;;;;;5079328;28;20225;-82
2022/08/05 12:56:29;;;;;;;1.60;1.50;;;41.40;33.90;;;;;;5080296;28;20290;-82
2022/08/05 12:59:17;;;;;;;1.20;1.20;;;41.40;34.20;;;;;;5077619;28;20834;-82
2022/08/05 13:01:45;;;;;;;1.65;1.55;;;41.00;34.40;;;;;;5082058;28;20320;-81
2022/08/05 13:04:16;;;;;;;1.63;1.52;;;39.50;35.30;;;;;;5075337;28;20222;-82
2022/08/05 13:06:44;;;;;;;1.83;1.73;;;38.20;36.30;;;;;;5080291;28;20680;-82
2022/08/05 13:09:13;;;;;;;1.60;1.50;;;37.50;37.50;;;;;;5076007;28;20317;-82